createdAt,value
2018-08-17T00:02:47.096Z,19.80
2018-08-17T00:05:57.389Z,19.80
2018-08-17T00:09:09.922Z,19.80
2018-08-17T00:12:20.619Z,19.70
2018-08-17T00:15:31.259Z,19.70
2018-08-17T00:18:42.063Z,19.60
2018-08-17T00:21:52.716Z,19.60
2018-08-17T00:25:03.410Z,19.70
2018-08-17T00:28:13.571Z,19.50
2018-08-17T00:31:24.608Z,19.50
2018-08-17T00:34:35.137Z,19.50
2018-08-17T00:37:46.150Z,19.40
2018-08-17T00:40:56.372Z,19.40
2018-08-17T00:44:07.420Z,19.40
2018-08-17T00:47:17.921Z,19.40
2018-08-17T00:50:29.393Z,19.40
2018-08-17T00:53:39.333Z,19.30
2018-08-17T00:56:49.978Z,19.20
2018-08-17T01:00:00.572Z,19.30
2018-08-17T01:03:11.244Z,19.30
2018-08-17T01:06:22.023Z,19.30
2018-08-17T01:09:32.690Z,19.20
2018-08-17T01:12:50.016Z,19.20
2018-08-17T01:16:00.255Z,19.20
2018-08-17T01:19:10.947Z,19.10
2018-08-17T01:22:21.676Z,19.10
2018-08-17T01:25:32.463Z,19.10
2018-08-17T01:28:43.224Z,19.10
2018-08-17T01:31:54.101Z,19.20
2018-08-17T01:35:05.223Z,19.10
2018-08-17T01:38:15.596Z,19.10
2018-08-17T01:41:26.348Z,19.10
2018-08-17T01:44:36.886Z,19.10
2018-08-17T01:47:46.928Z,19.10
2018-08-17T01:50:58.053Z,19.10
2018-08-17T01:54:08.824Z,19.10
2018-08-17T01:57:19.466Z,19.10
2018-08-17T02:00:30.233Z,19.10
2018-08-17T02:03:40.835Z,19.10
2018-08-17T02:06:51.662Z,19.10
2018-08-17T02:10:02.106Z,19.00
2018-08-17T02:13:12.994Z,18.90
2018-08-17T02:16:23.567Z,19.00
2018-08-17T02:19:34.333Z,18.90
2018-08-17T02:22:45.540Z,18.90
2018-08-17T02:25:55.824Z,19.00
2018-08-17T02:29:06.749Z,19.00
2018-08-17T02:32:17.242Z,18.90
2018-08-17T02:35:28.248Z,18.90
2018-08-17T02:38:38.655Z,18.80
2018-08-17T02:41:49.362Z,18.80
2018-08-17T02:44:59.484Z,18.80
2018-08-17T02:48:11.055Z,18.80
2018-08-17T02:51:22.497Z,18.80
2018-08-17T02:54:32.377Z,18.80
2018-08-17T02:57:42.384Z,18.70
2018-08-17T03:00:53.339Z,18.70
2018-08-17T03:04:03.988Z,18.70
2018-08-17T03:07:14.465Z,18.70
2018-08-17T03:10:25.012Z,18.70
2018-08-17T03:13:35.805Z,18.70
2018-08-17T03:16:45.924Z,18.70
2018-08-17T03:19:56.508Z,18.70
2018-08-17T03:23:07.663Z,18.70
2018-08-17T03:26:18.040Z,18.70
2018-08-17T03:29:28.010Z,18.70
2018-08-17T03:32:37.863Z,18.70
2018-08-17T03:35:48.752Z,18.70
2018-08-17T03:38:59.641Z,18.70
2018-08-17T03:42:10.364Z,18.70
2018-08-17T03:45:20.957Z,18.70
2018-08-17T03:48:31.902Z,18.70
2018-08-17T03:51:42.841Z,18.60
2018-08-17T03:54:53.505Z,18.60
2018-08-17T03:58:04.261Z,18.60
2018-08-17T04:01:14.710Z,18.50
2018-08-17T04:04:24.809Z,18.40
2018-08-17T04:07:35.637Z,18.40
2018-08-17T04:10:46.494Z,18.50
2018-08-17T04:13:57.359Z,18.40
2018-08-17T04:17:07.887Z,18.40
2018-08-17T04:20:18.712Z,18.50
2018-08-17T04:23:29.522Z,18.50
2018-08-17T04:26:39.673Z,18.50
2018-08-17T04:29:50.567Z,18.50
2018-08-17T04:33:01.600Z,18.50
2018-08-17T04:36:12.422Z,18.50
2018-08-17T04:39:23.151Z,18.50
2018-08-17T04:42:33.921Z,18.60
2018-08-17T04:45:43.783Z,18.50
2018-08-17T04:48:54.504Z,18.60
2018-08-17T04:52:05.141Z,18.60
2018-08-17T04:55:15.216Z,18.60
2018-08-17T04:58:25.097Z,18.60
2018-08-17T05:01:35.881Z,18.60
2018-08-17T05:04:45.989Z,18.60
2018-08-17T05:07:55.990Z,18.70
2018-08-17T05:11:05.977Z,18.70
2018-08-17T05:14:16.715Z,18.80
2018-08-17T05:17:27.324Z,18.90
2018-08-17T05:20:37.232Z,18.90
2018-08-17T05:23:47.310Z,19.00
2018-08-17T05:26:57.348Z,19.10
2018-08-17T05:30:07.981Z,19.10
2018-08-17T05:33:17.754Z,19.10
2018-08-17T05:36:28.337Z,19.20
2018-08-17T05:39:38.924Z,19.30
2018-08-17T05:42:49.303Z,19.40
2018-08-17T05:46:00.062Z,19.50
2018-08-17T05:49:10.136Z,19.70
2018-08-17T05:52:20.934Z,19.90
2018-08-17T05:55:31.597Z,20.10
2018-08-17T05:58:42.406Z,20.10
2018-08-17T06:01:53.499Z,20.30
2018-08-17T06:05:04.706Z,20.40
2018-08-17T06:08:15.311Z,20.60
2018-08-17T06:11:26.096Z,20.70
2018-08-17T06:14:36.761Z,20.80
2018-08-17T06:17:47.444Z,21.00
2018-08-17T06:20:58.310Z,21.10
2018-08-17T06:24:09.179Z,21.20
2018-08-17T06:27:20.397Z,21.40
2018-08-17T06:30:30.658Z,21.50
2018-08-17T06:33:41.046Z,21.70
2018-08-17T06:36:51.519Z,21.80
2018-08-17T06:40:02.360Z,22.00
2018-08-17T06:43:12.998Z,22.10
2018-08-17T06:46:23.682Z,22.30
2018-08-17T06:49:34.356Z,22.40
2018-08-17T06:52:44.716Z,22.60
2018-08-17T06:55:54.946Z,22.80
2018-08-17T06:59:05.229Z,22.90
2018-08-17T07:02:15.597Z,23.00
2018-08-17T07:05:26.393Z,23.20
2018-08-17T07:08:36.236Z,23.30
2018-08-17T07:11:46.323Z,23.50
2018-08-17T07:14:56.148Z,23.50
2018-08-17T07:18:06.871Z,23.70
2018-08-17T07:21:17.282Z,23.80
2018-08-17T07:24:27.543Z,23.90
2018-08-17T07:27:38.132Z,24.10
2018-08-17T07:30:48.653Z,24.30
2018-08-17T07:33:58.524Z,24.40
2018-08-17T07:37:09.123Z,24.60
2018-08-17T07:40:19.055Z,24.90
2018-08-17T07:43:28.886Z,25.00
2018-08-17T07:46:38.890Z,25.20
2018-08-17T07:49:49.413Z,25.30
2018-08-17T07:53:00.404Z,25.30
2018-08-17T07:56:11.045Z,25.60
2018-08-17T07:59:21.679Z,25.80
2018-08-17T08:02:32.243Z,25.80
2018-08-17T08:05:41.946Z,26.00
2018-08-17T08:08:52.232Z,26.10
2018-08-17T08:12:02.049Z,26.20
2018-08-17T08:15:12.410Z,26.40
2018-08-17T08:18:22.230Z,26.60
2018-08-17T08:21:31.828Z,26.60
2018-08-17T08:24:41.603Z,26.70
2018-08-17T08:27:51.401Z,26.80
2018-08-17T08:31:01.369Z,26.80
2018-08-17T08:34:11.953Z,27.00
2018-08-17T08:37:22.884Z,27.10
2018-08-17T08:40:33.681Z,27.10
2018-08-17T08:43:43.994Z,27.30
2018-08-17T08:46:53.830Z,27.50
2018-08-17T08:50:04.037Z,27.50
2018-08-17T08:53:14.883Z,27.70
2018-08-17T08:56:25.202Z,27.80
2018-08-17T08:59:35.947Z,27.80
2018-08-17T09:02:45.843Z,27.80
2018-08-17T09:05:56.605Z,27.90
2018-08-17T09:09:08.307Z,27.90
2018-08-17T09:12:18.419Z,27.80
2018-08-17T09:15:28.971Z,27.80
2018-08-17T09:18:39.102Z,27.90
2018-08-17T09:21:49.079Z,27.90
2018-08-17T09:24:59.072Z,28.10
2018-08-17T09:28:09.215Z,28.20
2018-08-17T09:31:19.788Z,28.40
2018-08-17T09:34:29.644Z,28.80
2018-08-17T09:37:39.462Z,28.80
2018-08-17T09:40:50.169Z,28.90
2018-08-17T09:44:00.050Z,28.60
2018-08-17T09:47:10.656Z,29.00
2018-08-17T09:50:20.517Z,29.30
2018-08-17T09:53:30.991Z,29.20
2018-08-17T09:56:41.384Z,29.10
2018-08-17T09:59:51.181Z,29.20
2018-08-17T10:03:07.007Z,29.40
2018-08-17T10:06:22.876Z,29.20
2018-08-17T10:09:38.714Z,29.50
2018-08-17T10:12:50.555Z,29.40
2018-08-17T10:16:00.207Z,29.50
2018-08-17T10:19:10.038Z,29.70
2018-08-17T10:22:19.884Z,29.80
2018-08-17T10:25:30.271Z,29.90
2018-08-17T10:28:40.185Z,30.00
2018-08-17T10:31:50.411Z,30.10
2018-08-17T10:35:00.982Z,30.20
2018-08-17T10:38:10.972Z,30.30
2018-08-17T10:41:21.075Z,30.60
2018-08-17T10:44:30.699Z,30.00
2018-08-17T10:47:40.587Z,29.90
2018-08-17T10:50:54.513Z,29.80
2018-08-17T10:54:05.960Z,30.00
2018-08-17T10:57:16.148Z,30.20
2018-08-17T11:00:26.641Z,30.00
2018-08-17T11:03:36.385Z,30.20
2018-08-17T11:06:46.146Z,30.40
2018-08-17T11:09:56.802Z,30.60
2018-08-17T11:13:06.878Z,30.70
2018-08-17T11:16:17.347Z,30.90
2018-08-17T11:19:27.929Z,31.00
2018-08-17T11:22:38.084Z,30.80
2018-08-17T11:25:47.856Z,30.70
2018-08-17T11:28:57.815Z,30.70
2018-08-17T11:32:07.708Z,30.50
2018-08-17T11:35:18.067Z,30.60
2018-08-17T11:38:28.224Z,30.90
2018-08-17T11:41:38.599Z,31.00
2018-08-17T11:44:49.276Z,31.40
2018-08-17T11:47:59.303Z,31.10
2018-08-17T11:51:09.651Z,31.30
2018-08-17T11:54:20.196Z,31.20
2018-08-17T11:57:30.206Z,31.10
2018-08-17T12:00:40.562Z,31.00
2018-08-17T12:03:50.340Z,30.80
2018-08-17T12:07:00.015Z,31.10
2018-08-17T12:10:10.609Z,31.20
2018-08-17T12:13:22.135Z,31.40
2018-08-17T12:16:32.386Z,31.40
2018-08-17T12:19:42.861Z,31.40
2018-08-17T12:22:52.600Z,31.30
2018-08-17T12:26:02.709Z,31.40
2018-08-17T12:29:12.879Z,31.30
2018-08-17T12:32:23.251Z,31.50
2018-08-17T12:35:33.609Z,31.80
2018-08-17T12:38:43.446Z,31.90
2018-08-17T12:41:53.258Z,31.90
2018-08-17T12:45:08.303Z,31.80
2018-08-17T12:48:18.250Z,31.50
2018-08-17T12:51:28.841Z,31.40
2018-08-17T12:54:39.945Z,31.30
2018-08-17T12:57:50.530Z,31.40
2018-08-17T13:01:00.275Z,31.40
2018-08-17T13:04:10.126Z,31.30
2018-08-17T13:07:19.861Z,31.50
2018-08-17T13:10:30.210Z,31.80
2018-08-17T13:13:40.558Z,31.80
2018-08-17T13:16:50.350Z,31.80
2018-08-17T13:20:00.534Z,31.60
2018-08-17T13:23:10.803Z,31.40
2018-08-17T13:26:21.643Z,31.90
2018-08-17T13:29:32.251Z,32.10
2018-08-17T13:32:43.685Z,31.90
2018-08-17T13:35:53.611Z,32.10
2018-08-17T13:39:06.410Z,32.20
2018-08-17T13:42:16.448Z,32.30
2018-08-17T13:45:27.154Z,32.60
2018-08-17T13:48:38.028Z,32.50
2018-08-17T13:51:48.572Z,32.50
2018-08-17T13:54:58.716Z,32.40
2018-08-17T13:58:09.472Z,32.00
2018-08-17T14:01:20.110Z,31.60
2018-08-17T14:04:30.760Z,31.50
2018-08-17T14:07:40.628Z,31.30
2018-08-17T14:10:50.564Z,31.40
2018-08-17T14:14:00.424Z,31.60
2018-08-17T14:17:10.477Z,31.40
2018-08-17T14:20:20.880Z,31.80
2018-08-17T14:23:30.930Z,31.80
2018-08-17T14:26:40.691Z,32.00
2018-08-17T14:29:51.189Z,32.00
2018-08-17T14:33:06.093Z,31.80
2018-08-17T14:36:17.448Z,32.10
2018-08-17T14:39:27.275Z,32.30
2018-08-17T14:42:37.076Z,32.20
2018-08-17T14:45:46.979Z,32.40
2018-08-17T14:48:57.830Z,32.70
2018-08-17T14:52:08.484Z,32.70
2018-08-17T14:55:18.569Z,32.80
2018-08-17T14:58:28.983Z,32.60
2018-08-17T15:01:39.788Z,32.50
2018-08-17T15:04:50.408Z,32.30
2018-08-17T15:08:00.213Z,32.60
2018-08-17T15:11:10.823Z,32.60
2018-08-17T15:14:20.571Z,32.70
2018-08-17T15:17:30.348Z,32.70
2018-08-17T15:20:40.614Z,32.80
2018-08-17T15:23:50.464Z,32.80
2018-08-17T15:27:00.885Z,32.50
2018-08-17T15:30:12.308Z,32.60
2018-08-17T15:33:22.395Z,32.70
2018-08-17T15:36:32.130Z,32.50
2018-08-17T15:39:41.899Z,32.60
2018-08-17T15:42:51.800Z,32.60
2018-08-17T15:46:01.829Z,32.60
2018-08-17T15:49:15.103Z,32.00
2018-08-17T15:52:25.425Z,32.10
2018-08-17T15:55:36.827Z,32.00
2018-08-17T15:58:47.444Z,31.80
2018-08-17T16:01:57.255Z,32.00
2018-08-17T16:05:08.613Z,31.70
2018-08-17T16:08:18.586Z,31.80
2018-08-17T16:11:29.356Z,31.70
2018-08-17T16:14:40.438Z,31.70
2018-08-17T16:17:51.150Z,31.80
2018-08-17T16:21:01.899Z,31.80
2018-08-17T16:24:11.719Z,31.40
2018-08-17T16:27:22.695Z,31.30
2018-08-17T16:30:33.777Z,31.30
2018-08-17T16:33:43.930Z,30.90
2018-08-17T16:36:54.087Z,30.80
2018-08-17T16:40:04.047Z,30.80
2018-08-17T16:43:13.770Z,30.50
2018-08-17T16:46:23.771Z,30.60
2018-08-17T16:49:33.555Z,30.40
2018-08-17T16:52:43.655Z,30.30
2018-08-17T16:56:07.332Z,30.00
2018-08-17T16:59:17.289Z,30.00
2018-08-17T17:02:27.018Z,29.80
2018-08-17T17:05:36.754Z,29.80
2018-08-17T17:08:47.366Z,29.60
2018-08-17T17:11:57.620Z,29.60
2018-08-17T17:15:25.822Z,29.50
2018-08-17T17:18:36.037Z,29.30
2018-08-17T17:21:47.773Z,29.10
2018-08-17T17:25:04.054Z,29.00
2018-08-17T17:28:14.569Z,29.00
2018-08-17T17:31:24.364Z,28.80
2018-08-17T17:34:36.085Z,28.80
2018-08-17T17:37:46.315Z,28.70
2018-08-17T17:40:56.551Z,28.70
2018-08-17T17:44:06.933Z,28.60
2018-08-17T17:47:17.347Z,28.50
2018-08-17T17:50:27.624Z,28.30
2018-08-17T17:53:37.453Z,28.30
2018-08-17T17:56:53.260Z,28.20
2018-08-17T18:00:04.055Z,28.10
2018-08-17T18:03:14.182Z,28.10
2018-08-17T18:06:24.975Z,28.00
2018-08-17T18:09:35.730Z,27.90
2018-08-17T18:12:46.421Z,27.80
2018-08-17T18:15:56.488Z,27.60
2018-08-17T18:19:06.758Z,27.60
2018-08-17T18:22:23.935Z,27.50
2018-08-17T18:26:16.488Z,27.50
2018-08-17T18:29:26.732Z,27.50
2018-08-17T18:32:36.606Z,27.40
2018-08-17T18:35:46.332Z,27.30
2018-08-17T18:38:56.029Z,27.30
2018-08-17T18:42:06.391Z,27.20
2018-08-17T18:45:17.081Z,27.10
2018-08-17T18:48:27.669Z,27.00
2018-08-17T18:51:39.386Z,27.00
2018-08-17T18:54:49.297Z,26.80
2018-08-17T18:58:02.787Z,26.80
2018-08-17T19:01:13.030Z,26.80
2018-08-17T19:04:22.867Z,26.80
2018-08-17T19:07:32.665Z,26.70
2018-08-17T19:10:43.284Z,26.80
2018-08-17T19:13:53.658Z,26.70
2018-08-17T19:17:05.061Z,26.70
2018-08-17T19:20:15.723Z,26.50
2018-08-17T19:23:26.518Z,26.60
2018-08-17T19:26:36.366Z,26.50
2018-08-17T19:29:46.767Z,26.40
2018-08-17T19:32:58.967Z,26.30
2018-08-17T19:36:09.904Z,26.20
2018-08-17T19:39:24.585Z,25.90
2018-08-17T19:42:34.440Z,25.50
2018-08-17T19:45:44.311Z,25.00
2018-08-17T19:48:55.152Z,24.40
2018-08-17T19:52:05.225Z,23.70
2018-08-17T19:55:15.963Z,23.30
2018-08-17T19:58:28.576Z,23.00
2018-08-17T20:01:39.605Z,22.70
2018-08-17T20:04:52.511Z,22.20
2018-08-17T20:08:03.469Z,21.90
2018-08-17T20:11:14.715Z,21.80
2018-08-17T20:14:24.831Z,21.80
2018-08-17T20:17:36.919Z,21.70
2018-08-17T20:20:47.314Z,21.20
2018-08-17T20:24:00.486Z,21.10
2018-08-17T20:27:10.827Z,21.20
2018-08-17T20:30:24.212Z,21.30
2018-08-17T20:33:35.480Z,21.40
2018-08-17T20:36:46.719Z,21.10
2018-08-17T20:39:57.207Z,20.80
2018-08-17T20:43:09.358Z,20.60
2018-08-17T20:46:19.963Z,20.80
2018-08-17T20:49:30.771Z,20.60
2018-08-17T20:52:48.292Z,20.90
2018-08-17T20:55:59.195Z,21.10
2018-08-17T20:59:10.613Z,20.50
2018-08-17T21:02:20.858Z,20.20
2018-08-17T21:05:31.760Z,20.30
2018-08-17T21:08:44.097Z,20.10
2018-08-17T21:11:54.397Z,20.00
2018-08-17T21:15:05.305Z,19.90
2018-08-17T21:18:15.811Z,19.90
2018-08-17T21:21:26.529Z,20.10
2018-08-17T21:24:43.937Z,19.90
2018-08-17T21:27:56.271Z,20.10
2018-08-17T21:31:07.215Z,20.30
2018-08-17T21:34:17.716Z,20.40
2018-08-17T21:37:28.796Z,20.30
2018-08-17T21:40:39.012Z,19.90
2018-08-17T21:43:49.630Z,20.20
2018-08-17T21:47:05.498Z,20.30
2018-08-17T21:50:16.540Z,20.40
2018-08-17T21:53:26.513Z,20.40
2018-08-17T21:56:37.137Z,20.30
2018-08-17T21:59:48.134Z,20.30
2018-08-17T22:02:58.126Z,20.20
2018-08-17T22:06:08.723Z,20.30
2018-08-17T22:09:30.770Z,20.40
2018-08-17T22:12:41.291Z,20.40
2018-08-17T22:15:52.329Z,20.40
2018-08-17T22:19:03.163Z,20.40
2018-08-17T22:22:13.332Z,20.40
2018-08-17T22:25:23.303Z,20.40
2018-08-17T22:28:34.228Z,20.40
2018-08-17T22:31:44.982Z,20.40
2018-08-17T22:34:55.656Z,20.50
2018-08-17T22:38:05.881Z,20.30
2018-08-17T22:41:16.481Z,20.40
2018-08-17T22:44:27.182Z,20.60
2018-08-17T22:47:37.135Z,20.20
2018-08-17T22:50:47.765Z,20.30
2018-08-17T22:53:58.568Z,20.30
2018-08-17T22:57:10.771Z,20.30
2018-08-17T23:00:26.454Z,20.30
2018-08-17T23:03:41.131Z,20.00
2018-08-17T23:06:51.951Z,20.00
2018-08-17T23:10:03.006Z,20.00
2018-08-17T23:13:13.603Z,19.90
2018-08-17T23:16:24.396Z,19.70
2018-08-17T23:19:35.229Z,19.80
2018-08-17T23:22:55.300Z,19.70
2018-08-17T23:26:06.542Z,19.80
2018-08-17T23:29:16.970Z,19.60
2018-08-17T23:32:26.925Z,19.70
2018-08-17T23:35:37.696Z,19.90
2018-08-17T23:38:48.613Z,20.00
2018-08-17T23:41:59.471Z,20.00
2018-08-17T23:45:11.862Z,20.00
2018-08-17T23:48:21.647Z,20.10
2018-08-17T23:51:31.674Z,19.90
2018-08-17T23:54:41.562Z,19.90
2018-08-17T23:57:52.473Z,19.90
